sensor_id;sensor_type;location;lat;lon;timestamp;P1;durP1;ratioP1;P2;durP2;ratioP2
51732;SDS011;39139;53.144;6.244;2024-02-16T00:00:55;10.07;;;4.35;;
51732;SDS011;39139;53.144;6.244;2024-02-16T00:03:22;11.27;;;4.88;;
51732;SDS011;39139;53.144;6.244;2024-02-16T00:05:47;10.82;;;4.22;;
51732;SDS011;39139;53.144;6.244;2024-02-16T00:08:15;6.85;;;4.20;;
51732;SDS011;39139;53.144;6.244;2024-02-16T00:10:41;9.32;;;4.68;;
51732;SDS011;39139;53.144;6.244;2024-02-16T00:13:07;6.88;;;3.97;;
51732;SDS011;39139;53.144;6.244;2024-02-16T00:15:33;7.60;;;4.20;;
51732;SDS011;39139;53.144;6.244;2024-02-16T00:17:59;9.63;;;4.57;;
51732;SDS011;39139;53.144;6.244;2024-02-16T00:20:25;9.20;;;4.22;;
51732;SDS011;39139;53.144;6.244;2024-02-16T00:22:51;12.80;;;5.03;;
51732;SDS011;39139;53.144;6.244;2024-02-16T00:25:16;14.23;;;4.57;;
51732;SDS011;39139;53.144;6.244;2024-02-16T00:27:43;8.70;;;3.90;;
51732;SDS011;39139;53.144;6.244;2024-02-16T00:30:09;10.60;;;5.18;;
51732;SDS011;39139;53.144;6.244;2024-02-16T00:32:37;10.10;;;3.50;;
51732;SDS011;39139;53.144;6.244;2024-02-16T00:35:03;6.13;;;4.55;;
51732;SDS011;39139;53.144;6.244;2024-02-16T00:37:29;9.63;;;4.28;;
51732;SDS011;39139;53.144;6.244;2024-02-16T00:39:54;9.02;;;4.78;;
51732;SDS011;39139;53.144;6.244;2024-02-16T00:42:21;11.02;;;4.50;;
51732;SDS011;39139;53.144;6.244;2024-02-16T00:44:51;6.53;;;4.60;;
51732;SDS011;39139;53.144;6.244;2024-02-16T00:47:17;9.35;;;4.82;;
51732;SDS011;39139;53.144;6.244;2024-02-16T00:49:43;7.00;;;4.25;;
51732;SDS011;39139;53.144;6.244;2024-02-16T00:52:08;10.13;;;4.78;;
51732;SDS011;39139;53.144;6.244;2024-02-16T00:54:35;11.00;;;4.47;;
51732;SDS011;39139;53.144;6.244;2024-02-16T00:57:01;8.02;;;4.45;;
51732;SDS011;39139;53.144;6.244;2024-02-16T00:59:30;10.95;;;4.82;;
51732;SDS011;39139;53.144;6.244;2024-02-16T01:01:59;11.55;;;4.60;;
51732;SDS011;39139;53.144;6.244;2024-02-16T01:04:24;8.73;;;4.63;;
51732;SDS011;39139;53.144;6.244;2024-02-16T01:06:50;7.75;;;4.00;;
51732;SDS011;39139;53.144;6.244;2024-02-16T01:09:16;12.18;;;4.75;;
51732;SDS011;39139;53.144;6.244;2024-02-16T01:11:41;6.18;;;3.72;;
51732;SDS011;39139;53.144;6.244;2024-02-16T01:14:07;9.38;;;4.70;;
51732;SDS011;39139;53.144;6.244;2024-02-16T01:16:33;13.32;;;4.70;;
51732;SDS011;39139;53.144;6.244;2024-02-16T01:18:59;8.65;;;4.40;;
51732;SDS011;39139;53.144;6.244;2024-02-16T01:21:24;9.60;;;4.50;;
51732;SDS011;39139;53.144;6.244;2024-02-16T01:23:50;10.13;;;4.45;;
51732;SDS011;39139;53.144;6.244;2024-02-16T01:26:15;8.68;;;4.05;;
51732;SDS011;39139;53.144;6.244;2024-02-16T01:28:41;5.18;;;4.47;;
51732;SDS011;39139;53.144;6.244;2024-02-16T01:31:07;4.90;;;4.00;;
51732;SDS011;39139;53.144;6.244;2024-02-16T01:33:35;8.80;;;4.10;;
51732;SDS011;39139;53.144;6.244;2024-02-16T01:36:02;7.20;;;4.88;;
51732;SDS011;39139;53.144;6.244;2024-02-16T01:38:28;10.52;;;4.97;;
51732;SDS011;39139;53.144;6.244;2024-02-16T01:40:54;8.15;;;4.88;;
51732;SDS011;39139;53.144;6.244;2024-02-16T01:43:20;6.57;;;4.30;;
51732;SDS011;39139;53.144;6.244;2024-02-16T01:45:46;7.95;;;4.50;;
51732;SDS011;39139;53.144;6.244;2024-02-16T01:48:12;6.88;;;4.18;;
51732;SDS011;39139;53.144;6.244;2024-02-16T01:50:40;8.35;;;4.28;;
51732;SDS011;39139;53.144;6.244;2024-02-16T01:53:14;11.45;;;4.40;;
51732;SDS011;39139;53.144;6.244;2024-02-16T01:55:44;10.55;;;4.30;;
51732;SDS011;39139;53.144;6.244;2024-02-16T01:58:10;9.25;;;4.28;;
51732;SDS011;39139;53.144;6.244;2024-02-16T02:00:36;6.93;;;3.03;;
51732;SDS011;39139;53.144;6.244;2024-02-16T02:03:02;6.88;;;3.78;;
51732;SDS011;39139;53.144;6.244;2024-02-16T02:05:28;6.95;;;3.67;;
51732;SDS011;39139;53.144;6.244;2024-02-16T02:07:54;11.60;;;4.28;;
51732;SDS011;39139;53.144;6.244;2024-02-16T02:10:20;6.05;;;3.75;;
51732;SDS011;39139;53.144;6.244;2024-02-16T02:12:46;8.43;;;4.78;;
51732;SDS011;39139;53.144;6.244;2024-02-16T02:15:11;7.05;;;3.90;;
51732;SDS011;39139;53.144;6.244;2024-02-16T02:17:37;6.50;;;3.83;;
51732;SDS011;39139;53.144;6.244;2024-02-16T02:20:03;7.82;;;4.40;;
51732;SDS011;39139;53.144;6.244;2024-02-16T02:22:33;7.75;;;4.32;;
51732;SDS011;39139;53.144;6.244;2024-02-16T02:24:58;8.13;;;4.28;;
51732;SDS011;39139;53.144;6.244;2024-02-16T02:27:24;6.43;;;4.25;;
51732;SDS011;39139;53.144;6.244;2024-02-16T02:29:50;7.97;;;3.65;;
51732;SDS011;39139;53.144;6.244;2024-02-16T02:32:16;6.88;;;4.18;;
51732;SDS011;39139;53.144;6.244;2024-02-16T02:34:41;8.07;;;4.22;;
51732;SDS011;39139;53.144;6.244;2024-02-16T02:37:08;12.75;;;4.28;;
51732;SDS011;39139;53.144;6.244;2024-02-16T02:39:34;7.68;;;4.00;;
51732;SDS011;39139;53.144;6.244;2024-02-16T02:42:00;5.60;;;3.95;;
51732;SDS011;39139;53.144;6.244;2024-02-16T02:44:25;12.55;;;4.45;;
51732;SDS011;39139;53.144;6.244;2024-02-16T02:46:51;5.07;;;4.00;;
51732;SDS011;39139;53.144;6.244;2024-02-16T02:49:18;12.10;;;3.97;;
51732;SDS011;39139;53.144;6.244;2024-02-16T02:51:44;12.20;;;4.10;;
51732;SDS011;39139;53.144;6.244;2024-02-16T02:54:09;7.07;;;4.78;;
51732;SDS011;39139;53.144;6.244;2024-02-16T02:56:35;10.13;;;4.25;;
51732;SDS011;39139;53.144;6.244;2024-02-16T02:59:01;6.45;;;3.80;;
51732;SDS011;39139;53.144;6.244;2024-02-16T03:01:27;6.65;;;4.25;;
51732;SDS011;39139;53.144;6.244;2024-02-16T03:03:53;5.25;;;3.83;;
51732;SDS011;39139;53.144;6.244;2024-02-16T03:06:19;4.30;;;3.75;;
51732;SDS011;39139;53.144;6.244;2024-02-16T03:08:45;8.68;;;4.15;;
51732;SDS011;39139;53.144;6.244;2024-02-16T03:11:11;7.57;;;4.53;;
51732;SDS011;39139;53.144;6.244;2024-02-16T03:13:37;6.00;;;4.50;;
51732;SDS011;39139;53.144;6.244;2024-02-16T03:16:02;7.22;;;4.28;;
51732;SDS011;39139;53.144;6.244;2024-02-16T03:18:29;6.93;;;4.32;;
51732;SDS011;39139;53.144;6.244;2024-02-16T03:20:55;7.95;;;4.55;;
51732;SDS011;39139;53.144;6.244;2024-02-16T03:23:22;14.20;;;4.50;;
51732;SDS011;39139;53.144;6.244;2024-02-16T03:25:48;8.23;;;4.18;;
51732;SDS011;39139;53.144;6.244;2024-02-16T03:28:14;5.05;;;3.92;;
51732;SDS011;39139;53.144;6.244;2024-02-16T03:30:40;7.43;;;4.40;;
51732;SDS011;39139;53.144;6.244;2024-02-16T03:33:06;7.63;;;4.65;;
51732;SDS011;39139;53.144;6.244;2024-02-16T03:35:32;7.18;;;4.00;;
51732;SDS011;39139;53.144;6.244;2024-02-16T03:37:58;5.95;;;4.10;;
51732;SDS011;39139;53.144;6.244;2024-02-16T03:40:24;8.02;;;4.07;;
51732;SDS011;39139;53.144;6.244;2024-02-16T03:42:51;7.25;;;4.03;;
51732;SDS011;39139;53.144;6.244;2024-02-16T03:45:17;9.60;;;4.70;;
51732;SDS011;39139;53.144;6.244;2024-02-16T03:47:43;11.05;;;4.03;;
51732;SDS011;39139;53.144;6.244;2024-02-16T03:50:09;5.75;;;3.88;;
51732;SDS011;39139;53.144;6.244;2024-02-16T03:52:35;8.38;;;4.57;;
51732;SDS011;39139;53.144;6.244;2024-02-16T03:55:01;7.47;;;4.43;;
51732;SDS011;39139;53.144;6.244;2024-02-16T03:57:27;5.35;;;4.00;;
51732;SDS011;39139;53.144;6.244;2024-02-16T03:59:55;10.40;;;4.25;;
51732;SDS011;39139;53.144;6.244;2024-02-16T04:02:20;6.63;;;4.00;;
51732;SDS011;39139;53.144;6.244;2024-02-16T04:04:46;8.02;;;3.60;;
51732;SDS011;39139;53.144;6.244;2024-02-16T04:07:11;6.68;;;3.50;;
51732;SDS011;39139;53.144;6.244;2024-02-16T04:09:37;10.23;;;4.53;;
51732;SDS011;39139;53.144;6.244;2024-02-16T04:12:03;7.70;;;4.60;;
51732;SDS011;39139;53.144;6.244;2024-02-16T04:14:29;7.32;;;3.95;;
51732;SDS011;39139;53.144;6.244;2024-02-16T04:16:55;4.97;;;3.75;;
51732;SDS011;39139;53.144;6.244;2024-02-16T04:19:25;5.43;;;4.03;;
51732;SDS011;39139;53.144;6.244;2024-02-16T04:21:51;9.00;;;4.18;;
51732;SDS011;39139;53.144;6.244;2024-02-16T04:24:17;16.40;;;4.55;;
51732;SDS011;39139;53.144;6.244;2024-02-16T04:26:43;5.57;;;3.88;;
51732;SDS011;39139;53.144;6.244;2024-02-16T04:29:09;4.97;;;4.22;;
51732;SDS011;39139;53.144;6.244;2024-02-16T04:31:34;4.68;;;4.13;;
51732;SDS011;39139;53.144;6.244;2024-02-16T04:34:00;6.18;;;3.65;;
51732;SDS011;39139;53.144;6.244;2024-02-16T04:36:26;5.78;;;4.40;;
51732;SDS011;39139;53.144;6.244;2024-02-16T04:38:52;7.28;;;4.00;;
51732;SDS011;39139;53.144;6.244;2024-02-16T04:41:19;6.13;;;4.15;;
51732;SDS011;39139;53.144;6.244;2024-02-16T04:43:45;8.93;;;4.22;;
51732;SDS011;39139;53.144;6.244;2024-02-16T04:46:14;6.50;;;4.20;;
51732;SDS011;39139;53.144;6.244;2024-02-16T04:48:40;7.18;;;3.95;;
51732;SDS011;39139;53.144;6.244;2024-02-16T04:51:06;8.57;;;4.10;;
51732;SDS011;39139;53.144;6.244;2024-02-16T04:53:32;5.45;;;4.07;;
51732;SDS011;39139;53.144;6.244;2024-02-16T04:55:57;7.15;;;4.55;;
51732;SDS011;39139;53.144;6.244;2024-02-16T04:58:23;6.38;;;3.97;;
51732;SDS011;39139;53.144;6.244;2024-02-16T05:00:49;6.47;;;4.45;;
51732;SDS011;39139;53.144;6.244;2024-02-16T05:03:14;9.85;;;4.07;;
51732;SDS011;39139;53.144;6.244;2024-02-16T05:05:40;6.78;;;4.43;;
51732;SDS011;39139;53.144;6.244;2024-02-16T05:08:06;12.20;;;4.55;;
51732;SDS011;39139;53.144;6.244;2024-02-16T05:10:31;7.85;;;3.72;;
51732;SDS011;39139;53.144;6.244;2024-02-16T05:12:57;9.27;;;4.20;;
51732;SDS011;39139;53.144;6.244;2024-02-16T05:15:23;10.80;;;4.65;;
51732;SDS011;39139;53.144;6.244;2024-02-16T05:17:49;7.10;;;3.85;;
51732;SDS011;39139;53.144;6.244;2024-02-16T05:20:16;7.20;;;4.75;;
51732;SDS011;39139;53.144;6.244;2024-02-16T05:22:45;7.72;;;4.22;;
51732;SDS011;39139;53.144;6.244;2024-02-16T05:25:14;6.38;;;4.50;;
51732;SDS011;39139;53.144;6.244;2024-02-16T05:27:40;6.40;;;3.67;;
51732;SDS011;39139;53.144;6.244;2024-02-16T05:30:08;6.45;;;3.83;;
51732;SDS011;39139;53.144;6.244;2024-02-16T05:32:35;6.88;;;3.80;;
51732;SDS011;39139;53.144;6.244;2024-02-16T05:35:05;8.73;;;4.40;;
51732;SDS011;39139;53.144;6.244;2024-02-16T05:37:42;6.55;;;4.00;;
51732;SDS011;39139;53.144;6.244;2024-02-16T05:40:09;7.88;;;3.60;;
51732;SDS011;39139;53.144;6.244;2024-02-16T05:42:52;7.68;;;4.47;;
51732;SDS011;39139;53.144;6.244;2024-02-16T05:45:19;4.00;;;3.38;;
51732;SDS011;39139;53.144;6.244;2024-02-16T05:47:46;6.70;;;3.83;;
51732;SDS011;39139;53.144;6.244;2024-02-16T05:50:12;7.35;;;3.88;;
51732;SDS011;39139;53.144;6.244;2024-02-16T05:52:39;6.68;;;3.83;;
51732;SDS011;39139;53.144;6.244;2024-02-16T05:55:06;4.35;;;3.80;;
51732;SDS011;39139;53.144;6.244;2024-02-16T05:57:33;4.82;;;3.92;;
51732;SDS011;39139;53.144;6.244;2024-02-16T05:59:59;8.30;;;4.40;;
51732;SDS011;39139;53.144;6.244;2024-02-16T06:02:24;7.63;;;3.92;;
51732;SDS011;39139;53.144;6.244;2024-02-16T06:04:51;7.18;;;4.20;;
51732;SDS011;39139;53.144;6.244;2024-02-16T06:07:17;4.85;;;4.03;;
51732;SDS011;39139;53.144;6.244;2024-02-16T06:09:43;5.50;;;4.07;;
51732;SDS011;39139;53.144;6.244;2024-02-16T06:12:08;5.90;;;4.07;;
51732;SDS011;39139;53.144;6.244;2024-02-16T06:14:35;4.68;;;3.72;;
51732;SDS011;39139;53.144;6.244;2024-02-16T06:17:01;7.75;;;3.75;;
51732;SDS011;39139;53.144;6.244;2024-02-16T06:19:28;6.20;;;3.75;;
51732;SDS011;39139;53.144;6.244;2024-02-16T06:21:54;5.32;;;4.05;;
51732;SDS011;39139;53.144;6.244;2024-02-16T06:24:23;7.82;;;3.92;;
51732;SDS011;39139;53.144;6.244;2024-02-16T06:26:49;4.40;;;4.00;;
51732;SDS011;39139;53.144;6.244;2024-02-16T06:29:16;7.80;;;3.30;;
51732;SDS011;39139;53.144;6.244;2024-02-16T06:31:44;9.75;;;4.10;;
51732;SDS011;39139;53.144;6.244;2024-02-16T06:34:13;8.93;;;4.23;;
51732;SDS011;39139;53.144;6.244;2024-02-16T06:36:40;7.70;;;3.88;;
51732;SDS011;39139;53.144;6.244;2024-02-16T06:39:06;6.38;;;4.07;;
51732;SDS011;39139;53.144;6.244;2024-02-16T06:41:32;7.18;;;3.67;;
51732;SDS011;39139;53.144;6.244;2024-02-16T06:43:58;4.28;;;3.72;;
51732;SDS011;39139;53.144;6.244;2024-02-16T06:46:24;5.63;;;4.18;;
51732;SDS011;39139;53.144;6.244;2024-02-16T06:48:52;6.72;;;3.83;;
51732;SDS011;39139;53.144;6.244;2024-02-16T06:51:21;6.07;;;3.63;;
51732;SDS011;39139;53.144;6.244;2024-02-16T06:53:51;4.45;;;3.35;;
51732;SDS011;39139;53.144;6.244;2024-02-16T06:56:17;10.25;;;4.78;;
51732;SDS011;39139;53.144;6.244;2024-02-16T06:58:46;4.55;;;4.03;;
51732;SDS011;39139;53.144;6.244;2024-02-16T07:01:16;6.40;;;4.03;;
51732;SDS011;39139;53.144;6.244;2024-02-16T07:03:43;5.70;;;4.10;;
51732;SDS011;39139;53.144;6.244;2024-02-16T07:06:09;9.55;;;4.22;;
51732;SDS011;39139;53.144;6.244;2024-02-16T07:08:41;5.80;;;4.95;;
51732;SDS011;39139;53.144;6.244;2024-02-16T07:11:07;7.50;;;4.60;;
51732;SDS011;39139;53.144;6.244;2024-02-16T07:13:36;8.65;;;4.30;;
51732;SDS011;39139;53.144;6.244;2024-02-16T07:16:03;4.63;;;3.72;;
51732;SDS011;39139;53.144;6.244;2024-02-16T07:18:29;6.60;;;3.97;;
51732;SDS011;39139;53.144;6.244;2024-02-16T07:20:55;5.88;;;3.95;;
51732;SDS011;39139;53.144;6.244;2024-02-16T07:23:21;5.32;;;3.92;;
51732;SDS011;39139;53.144;6.244;2024-02-16T07:25:47;5.35;;;4.10;;
51732;SDS011;39139;53.144;6.244;2024-02-16T07:28:14;8.30;;;4.07;;
51732;SDS011;39139;53.144;6.244;2024-02-16T07:30:39;5.38;;;4.15;;
51732;SDS011;39139;53.144;6.244;2024-02-16T07:33:05;8.30;;;4.93;;
51732;SDS011;39139;53.144;6.244;2024-02-16T07:35:32;4.10;;;3.70;;
51732;SDS011;39139;53.144;6.244;2024-02-16T07:38:01;7.40;;;3.72;;
51732;SDS011;39139;53.144;6.244;2024-02-16T07:40:28;6.47;;;4.13;;
51732;SDS011;39139;53.144;6.244;2024-02-16T07:42:53;5.90;;;4.03;;
51732;SDS011;39139;53.144;6.244;2024-02-16T07:45:19;6.55;;;4.03;;
51732;SDS011;39139;53.144;6.244;2024-02-16T07:47:45;6.88;;;4.53;;
51732;SDS011;39139;53.144;6.244;2024-02-16T07:50:11;7.63;;;4.13;;
51732;SDS011;39139;53.144;6.244;2024-02-16T07:52:40;7.30;;;4.25;;
51732;SDS011;39139;53.144;6.244;2024-02-16T07:55:06;6.40;;;4.07;;
51732;SDS011;39139;53.144;6.244;2024-02-16T07:57:32;6.20;;;4.30;;
51732;SDS011;39139;53.144;6.244;2024-02-16T07:59:57;5.63;;;4.07;;
51732;SDS011;39139;53.144;6.244;2024-02-16T08:02:23;8.43;;;5.15;;
51732;SDS011;39139;53.144;6.244;2024-02-16T08:04:49;6.00;;;4.53;;
51732;SDS011;39139;53.144;6.244;2024-02-16T08:07:15;6.63;;;4.30;;
51732;SDS011;39139;53.144;6.244;2024-02-16T08:09:50;8.35;;;4.60;;
51732;SDS011;39139;53.144;6.244;2024-02-16T08:12:16;6.60;;;4.55;;
51732;SDS011;39139;53.144;6.244;2024-02-16T08:14:42;5.53;;;4.43;;
51732;SDS011;39139;53.144;6.244;2024-02-16T08:17:08;8.02;;;4.38;;
51732;SDS011;39139;53.144;6.244;2024-02-16T08:19:35;7.28;;;5.00;;
51732;SDS011;39139;53.144;6.244;2024-02-16T08:22:02;9.70;;;5.28;;
51732;SDS011;39139;53.144;6.244;2024-02-16T08:24:32;5.00;;;4.30;;
51732;SDS011;39139;53.144;6.244;2024-02-16T08:27:01;6.80;;;4.73;;
51732;SDS011;39139;53.144;6.244;2024-02-16T08:29:27;5.20;;;4.20;;
51732;SDS011;39139;53.144;6.244;2024-02-16T08:31:53;6.95;;;4.50;;
51732;SDS011;39139;53.144;6.244;2024-02-16T08:34:20;5.50;;;4.28;;
51732;SDS011;39139;53.144;6.244;2024-02-16T08:36:46;6.75;;;3.95;;
51732;SDS011;39139;53.144;6.244;2024-02-16T08:39:13;8.77;;;4.93;;
51732;SDS011;39139;53.144;6.244;2024-02-16T08:41:39;9.98;;;5.03;;
51732;SDS011;39139;53.144;6.244;2024-02-16T08:44:08;7.28;;;4.80;;
51732;SDS011;39139;53.144;6.244;2024-02-16T08:46:35;7.10;;;5.20;;
51732;SDS011;39139;53.144;6.244;2024-02-16T08:49:04;8.27;;;4.72;;
51732;SDS011;39139;53.144;6.244;2024-02-16T08:51:33;5.55;;;4.90;;
51732;SDS011;39139;53.144;6.244;2024-02-16T08:53:59;5.50;;;4.32;;
51732;SDS011;39139;53.144;6.244;2024-02-16T08:56:25;7.53;;;5.47;;
51732;SDS011;39139;53.144;6.244;2024-02-16T08:58:51;9.65;;;5.65;;
51732;SDS011;39139;53.144;6.244;2024-02-16T09:01:16;8.13;;;4.88;;
51732;SDS011;39139;53.144;6.244;2024-02-16T09:03:42;9.95;;;5.45;;
51732;SDS011;39139;53.144;6.244;2024-02-16T09:06:08;7.10;;;5.00;;
51732;SDS011;39139;53.144;6.244;2024-02-16T09:08:34;7.35;;;4.50;;
51732;SDS011;39139;53.144;6.244;2024-02-16T09:11:03;7.90;;;5.15;;
51732;SDS011;39139;53.144;6.244;2024-02-16T09:13:33;7.90;;;5.40;;
51732;SDS011;39139;53.144;6.244;2024-02-16T09:18:26;11.63;;;5.72;;
51732;SDS011;39139;53.144;6.244;2024-02-16T09:20:52;10.40;;;5.30;;
51732;SDS011;39139;53.144;6.244;2024-02-16T09:23:18;8.48;;;5.68;;
51732;SDS011;39139;53.144;6.244;2024-02-16T09:25:43;9.25;;;5.50;;
51732;SDS011;39139;53.144;6.244;2024-02-16T09:28:11;10.18;;;6.20;;
51732;SDS011;39139;53.144;6.244;2024-02-16T09:30:37;10.77;;;6.07;;
51732;SDS011;39139;53.144;6.244;2024-02-16T09:33:03;10.82;;;5.78;;
51732;SDS011;39139;53.144;6.244;2024-02-16T09:35:29;8.18;;;6.13;;
51732;SDS011;39139;53.144;6.244;2024-02-16T09:37:55;7.43;;;6.13;;
51732;SDS011;39139;53.144;6.244;2024-02-16T09:40:22;10.25;;;6.10;;
51732;SDS011;39139;53.144;6.244;2024-02-16T09:42:48;11.30;;;6.35;;
51732;SDS011;39139;53.144;6.244;2024-02-16T09:45:14;8.45;;;6.38;;
51732;SDS011;39139;53.144;6.244;2024-02-16T09:47:50;12.10;;;6.18;;
51732;SDS011;39139;53.144;6.244;2024-02-16T09:50:17;11.20;;;6.25;;
51732;SDS011;39139;53.144;6.244;2024-02-16T09:52:46;10.35;;;6.80;;
51732;SDS011;39139;53.144;6.244;2024-02-16T09:55:14;7.40;;;5.78;;
51732;SDS011;39139;53.144;6.244;2024-02-16T09:57:41;9.88;;;5.90;;
51732;SDS011;39139;53.144;6.244;2024-02-16T10:00:08;8.18;;;6.05;;
51732;SDS011;39139;53.144;6.244;2024-02-16T10:02:44;7.32;;;5.97;;
51732;SDS011;39139;53.144;6.244;2024-02-16T10:05:17;9.57;;;5.90;;
51732;SDS011;39139;53.144;6.244;2024-02-16T10:07:45;11.75;;;7.20;;
51732;SDS011;39139;53.144;6.244;2024-02-16T10:10:21;12.07;;;6.57;;
51732;SDS011;39139;53.144;6.244;2024-02-16T10:13:02;10.45;;;6.50;;
51732;SDS011;39139;53.144;6.244;2024-02-16T10:15:31;7.78;;;6.32;;
51732;SDS011;39139;53.144;6.244;2024-02-16T10:18:00;12.00;;;6.78;;
51732;SDS011;39139;53.144;6.244;2024-02-16T10:20:28;7.43;;;6.57;;
51732;SDS011;39139;53.144;6.244;2024-02-16T10:23:07;14.15;;;7.82;;
51732;SDS011;39139;53.144;6.244;2024-02-16T10:25:34;13.40;;;8.10;;
51732;SDS011;39139;53.144;6.244;2024-02-16T10:28:05;9.85;;;6.43;;
51732;SDS011;39139;53.144;6.244;2024-02-16T10:30:36;12.95;;;7.50;;
51732;SDS011;39139;53.144;6.244;2024-02-16T10:33:04;11.68;;;7.20;;
51732;SDS011;39139;53.144;6.244;2024-02-16T10:35:31;12.40;;;7.53;;
51732;SDS011;39139;53.144;6.244;2024-02-16T10:38:01;11.30;;;8.35;;
51732;SDS011;39139;53.144;6.244;2024-02-16T10:40:32;15.10;;;8.73;;
51732;SDS011;39139;53.144;6.244;2024-02-16T10:43:03;15.15;;;8.98;;
51732;SDS011;39139;53.144;6.244;2024-02-16T10:45:33;14.30;;;9.00;;
51732;SDS011;39139;53.144;6.244;2024-02-16T10:48:01;12.75;;;8.90;;
51732;SDS011;39139;53.144;6.244;2024-02-16T10:52:57;18.83;;;9.70;;
51732;SDS011;39139;53.144;6.244;2024-02-16T10:55:27;18.02;;;10.98;;
51732;SDS011;39139;53.144;6.244;2024-02-16T10:57:53;19.75;;;10.57;;
51732;SDS011;39139;53.144;6.244;2024-02-16T11:00:22;17.77;;;11.50;;
51732;SDS011;39139;53.144;6.244;2024-02-16T11:02:57;24.67;;;11.70;;
51732;SDS011;39139;53.144;6.244;2024-02-16T11:05:33;23.67;;;12.80;;
51732;SDS011;39139;53.144;6.244;2024-02-16T11:08:00;20.67;;;11.63;;
51732;SDS011;39139;53.144;6.244;2024-02-16T11:10:29;28.50;;;13.70;;
51732;SDS011;39139;53.144;6.244;2024-02-16T11:12:59;25.42;;;14.80;;
51732;SDS011;39139;53.144;6.244;2024-02-16T11:15:31;27.42;;;15.52;;
51732;SDS011;39139;53.144;6.244;2024-02-16T11:17:58;26.25;;;14.27;;
51732;SDS011;39139;53.144;6.244;2024-02-16T11:20:26;25.15;;;13.85;;
51732;SDS011;39139;53.144;6.244;2024-02-16T11:22:52;22.23;;;15.40;;
51732;SDS011;39139;53.144;6.244;2024-02-16T11:25:18;26.88;;;15.38;;
51732;SDS011;39139;53.144;6.244;2024-02-16T11:27:46;28.48;;;13.80;;
51732;SDS011;39139;53.144;6.244;2024-02-16T11:30:12;21.30;;;13.68;;
51732;SDS011;39139;53.144;6.244;2024-02-16T11:32:38;24.60;;;14.35;;
51732;SDS011;39139;53.144;6.244;2024-02-16T11:35:07;24.87;;;14.00;;
51732;SDS011;39139;53.144;6.244;2024-02-16T11:37:33;19.90;;;12.30;;
51732;SDS011;39139;53.144;6.244;2024-02-16T11:39:59;20.05;;;14.23;;
51732;SDS011;39139;53.144;6.244;2024-02-16T11:42:24;23.95;;;13.35;;
51732;SDS011;39139;53.144;6.244;2024-02-16T11:44:51;21.48;;;13.10;;
51732;SDS011;39139;53.144;6.244;2024-02-16T11:47:23;23.30;;;14.00;;
51732;SDS011;39139;53.144;6.244;2024-02-16T11:52:46;18.50;;;12.82;;
51732;SDS011;39139;53.144;6.244;2024-02-16T11:55:12;15.45;;;10.85;;
51732;SDS011;39139;53.144;6.244;2024-02-16T11:57:40;21.83;;;13.00;;
51732;SDS011;39139;53.144;6.244;2024-02-16T12:00:06;17.50;;;12.23;;
51732;SDS011;39139;53.144;6.244;2024-02-16T12:02:36;19.73;;;13.38;;
51732;SDS011;39139;53.144;6.244;2024-02-16T12:05:02;20.35;;;12.88;;
51732;SDS011;39139;53.144;6.244;2024-02-16T12:07:29;16.63;;;12.00;;
51732;SDS011;39139;53.144;6.244;2024-02-16T12:09:58;17.25;;;12.50;;
51732;SDS011;39139;53.144;6.244;2024-02-16T12:12:25;20.90;;;11.48;;
51732;SDS011;39139;53.144;6.244;2024-02-16T12:14:52;19.33;;;10.75;;
51732;SDS011;39139;53.144;6.244;2024-02-16T12:17:21;11.83;;;10.73;;
51732;SDS011;39139;53.144;6.244;2024-02-16T12:19:47;14.07;;;11.43;;
51732;SDS011;39139;53.144;6.244;2024-02-16T12:22:16;13.48;;;11.98;;
51732;SDS011;39139;53.144;6.244;2024-02-16T12:24:46;12.70;;;11.25;;
51732;SDS011;39139;53.144;6.244;2024-02-16T12:27:15;11.45;;;10.23;;
51732;SDS011;39139;53.144;6.244;2024-02-16T12:29:41;17.75;;;11.57;;
51732;SDS011;39139;53.144;6.244;2024-02-16T12:32:07;13.40;;;11.15;;
51732;SDS011;39139;53.144;6.244;2024-02-16T12:34:36;12.70;;;10.57;;
51732;SDS011;39139;53.144;6.244;2024-02-16T12:37:04;12.52;;;10.00;;
51732;SDS011;39139;53.144;6.244;2024-02-16T12:39:32;10.88;;;9.75;;
51732;SDS011;39139;53.144;6.244;2024-02-16T12:41:58;12.63;;;10.93;;
51732;SDS011;39139;53.144;6.244;2024-02-16T12:44:24;10.90;;;9.93;;
51732;SDS011;39139;53.144;6.244;2024-02-16T12:46:49;10.10;;;8.82;;
51732;SDS011;39139;53.144;6.244;2024-02-16T12:49:15;9.48;;;8.68;;
51732;SDS011;39139;53.144;6.244;2024-02-16T12:51:41;10.23;;;9.23;;
51732;SDS011;39139;53.144;6.244;2024-02-16T12:54:06;9.48;;;8.63;;
51732;SDS011;39139;53.144;6.244;2024-02-16T12:56:33;9.30;;;8.55;;
51732;SDS011;39139;53.144;6.244;2024-02-16T12:58:58;9.05;;;8.27;;
51732;SDS011;39139;53.144;6.244;2024-02-16T13:01:26;11.18;;;8.32;;
51732;SDS011;39139;53.144;6.244;2024-02-16T13:03:52;9.82;;;8.82;;
51732;SDS011;39139;53.144;6.244;2024-02-16T13:06:18;9.60;;;8.63;;
51732;SDS011;39139;53.144;6.244;2024-02-16T13:08:43;7.60;;;7.10;;
51732;SDS011;39139;53.144;6.244;2024-02-16T13:11:09;8.32;;;7.63;;
51732;SDS011;39139;53.144;6.244;2024-02-16T13:13:35;9.05;;;8.20;;
51732;SDS011;39139;53.144;6.244;2024-02-16T13:16:00;8.02;;;7.43;;
51732;SDS011;39139;53.144;6.244;2024-02-16T13:18:26;7.72;;;7.07;;
51732;SDS011;39139;53.144;6.244;2024-02-16T13:20:51;7.95;;;7.22;;
51732;SDS011;39139;53.144;6.244;2024-02-16T13:23:17;7.50;;;6.90;;
51732;SDS011;39139;53.144;6.244;2024-02-16T13:25:43;8.07;;;7.15;;
51732;SDS011;39139;53.144;6.244;2024-02-16T13:28:08;6.15;;;5.93;;
51732;SDS011;39139;53.144;6.244;2024-02-16T13:30:34;7.95;;;7.28;;
51732;SDS011;39139;53.144;6.244;2024-02-16T13:32:59;7.82;;;7.10;;
51732;SDS011;39139;53.144;6.244;2024-02-16T13:35:25;8.60;;;6.50;;
51732;SDS011;39139;53.144;6.244;2024-02-16T13:37:51;6.80;;;6.28;;
51732;SDS011;39139;53.144;6.244;2024-02-16T13:40:17;7.10;;;6.47;;
51732;SDS011;39139;53.144;6.244;2024-02-16T13:42:43;9.40;;;6.20;;
51732;SDS011;39139;53.144;6.244;2024-02-16T13:45:10;7.38;;;6.68;;
51732;SDS011;39139;53.144;6.244;2024-02-16T13:47:36;8.60;;;6.75;;
51732;SDS011;39139;53.144;6.244;2024-02-16T13:50:05;10.02;;;7.43;;
51732;SDS011;39139;53.144;6.244;2024-02-16T13:52:31;8.35;;;7.55;;
51732;SDS011;39139;53.144;6.244;2024-02-16T13:54:57;10.68;;;7.45;;
51732;SDS011;39139;53.144;6.244;2024-02-16T13:57:23;8.32;;;7.43;;
51732;SDS011;39139;53.144;6.244;2024-02-16T13:59:48;9.30;;;8.27;;
51732;SDS011;39139;53.144;6.244;2024-02-16T14:02:14;9.73;;;7.93;;
51732;SDS011;39139;53.144;6.244;2024-02-16T14:04:40;11.68;;;8.63;;
51732;SDS011;39139;53.144;6.244;2024-02-16T14:07:06;12.35;;;8.77;;
51732;SDS011;39139;53.144;6.244;2024-02-16T14:09:32;14.18;;;9.77;;
51732;SDS011;39139;53.144;6.244;2024-02-16T14:11:58;10.95;;;9.18;;
51732;SDS011;39139;53.144;6.244;2024-02-16T14:14:24;9.85;;;8.90;;
51732;SDS011;39139;53.144;6.244;2024-02-16T14:16:50;18.90;;;10.20;;
51732;SDS011;39139;53.144;6.244;2024-02-16T14:19:16;12.57;;;10.38;;
51732;SDS011;39139;53.144;6.244;2024-02-16T14:21:45;12.18;;;10.50;;
51732;SDS011;39139;53.144;6.244;2024-02-16T14:24:12;10.40;;;9.18;;
51732;SDS011;39139;53.144;6.244;2024-02-16T14:26:38;13.82;;;9.48;;
51732;SDS011;39139;53.144;6.244;2024-02-16T14:29:04;12.88;;;9.80;;
51732;SDS011;39139;53.144;6.244;2024-02-16T14:31:31;11.60;;;10.48;;
51732;SDS011;39139;53.144;6.244;2024-02-16T14:33:58;11.73;;;9.90;;
51732;SDS011;39139;53.144;6.244;2024-02-16T14:36:24;11.00;;;9.88;;
51732;SDS011;39139;53.144;6.244;2024-02-16T14:38:50;18.40;;;10.60;;
51732;SDS011;39139;53.144;6.244;2024-02-16T14:41:15;17.27;;;11.10;;
51732;SDS011;39139;53.144;6.244;2024-02-16T14:43:41;17.50;;;12.77;;
51732;SDS011;39139;53.144;6.244;2024-02-16T14:46:08;18.77;;;12.48;;